createdAt,value
2019-05-02T00:01:25.001Z,8.99
2019-05-02T00:03:55.994Z,9.00
2019-05-02T00:06:27.459Z,8.76
2019-05-02T00:09:18.197Z,8.72
2019-05-02T00:11:58.586Z,8.61
2019-05-02T00:14:21.919Z,8.61
2019-05-02T00:16:52.819Z,8.68
2019-05-02T00:19:23.882Z,8.61
2019-05-02T00:22:17.122Z,8.54
2019-05-02T00:24:46.178Z,8.48
2019-05-02T00:27:17.232Z,8.39
2019-05-02T00:29:48.048Z,8.30
2019-05-02T00:32:22.457Z,8.33
2019-05-02T00:34:51.393Z,8.36
2019-05-02T00:37:24.605Z,8.49
2019-05-02T00:39:54.778Z,8.39
2019-05-02T00:42:25.563Z,8.26
2019-05-02T00:44:57.013Z,8.35
2019-05-02T00:47:42.313Z,8.36
2019-05-02T00:50:13.843Z,8.39
2019-05-02T00:52:44.588Z,8.45
2019-05-02T00:55:15.699Z,8.39
2019-05-02T00:57:50.791Z,8.19
2019-05-02T01:00:19.832Z,8.14
2019-05-02T01:02:56.928Z,8.10
2019-05-02T01:05:46.753Z,8.03
2019-05-02T01:08:17.421Z,7.91
2019-05-02T01:10:52.132Z,7.81
2019-05-02T01:13:20.736Z,7.72
2019-05-02T01:15:51.484Z,7.72
2019-05-02T01:18:24.418Z,7.76
2019-05-02T01:20:58.198Z,7.68
2019-05-02T01:23:29.501Z,7.67
2019-05-02T01:26:00.447Z,7.69
2019-05-02T01:28:54.282Z,7.65
2019-05-02T01:31:29.266Z,7.62
2019-05-02T01:34:17.979Z,7.52
2019-05-02T01:36:57.186Z,7.68
2019-05-02T01:39:27.997Z,7.48
2019-05-02T01:41:59.968Z,7.47
2019-05-02T01:44:36.146Z,7.50
2019-05-02T01:47:03.885Z,7.60
2019-05-02T01:49:34.516Z,7.53
2019-05-02T01:52:05.316Z,7.49
2019-05-02T01:54:36.253Z,7.53
2019-05-02T01:57:08.706Z,7.49
2019-05-02T01:59:39.508Z,7.54
2019-05-02T02:02:10.293Z,7.49
2019-05-02T02:04:41.108Z,7.50
2019-05-02T02:07:14.968Z,7.39
2019-05-02T02:09:45.841Z,7.31
2019-05-02T02:12:16.732Z,7.29
2019-05-02T02:14:48.166Z,7.10
2019-05-02T02:17:19.950Z,7.17
2019-05-02T02:19:55.500Z,7.23
2019-05-02T02:22:41.656Z,7.18
2019-05-02T02:25:36.262Z,7.09
2019-05-02T02:28:05.750Z,7.07
2019-05-02T02:30:36.579Z,7.02
2019-05-02T02:33:09.472Z,6.90
2019-05-02T02:35:49.582Z,6.85
2019-05-02T02:38:12.577Z,6.78
2019-05-02T02:40:43.397Z,6.83
2019-05-02T02:43:32.891Z,6.82
2019-05-02T02:46:00.331Z,6.68
2019-05-02T02:48:33.897Z,6.76
2019-05-02T02:51:04.354Z,6.66
2019-05-02T02:53:35.387Z,6.63
2019-05-02T02:56:08.557Z,6.56
2019-05-02T02:58:45.782Z,6.56
2019-05-02T03:01:12.066Z,6.67
2019-05-02T03:03:43.138Z,6.61
2019-05-02T03:06:13.989Z,6.63
2019-05-02T03:08:48.569Z,6.68
2019-05-02T03:11:23.843Z,6.72
2019-05-02T03:14:06.093Z,6.74
2019-05-02T03:16:32.357Z,6.56
2019-05-02T03:19:03.281Z,6.61
2019-05-02T03:21:34.228Z,6.60
2019-05-02T03:24:05.756Z,6.66
2019-05-02T03:26:36.776Z,6.62
2019-05-02T03:29:07.584Z,6.56
2019-05-02T03:31:38.703Z,6.56
2019-05-02T03:34:09.440Z,6.65
2019-05-02T03:36:41.550Z,6.64
2019-05-02T03:39:14.912Z,6.58
2019-05-02T03:41:45.061Z,6.59
2019-05-02T03:44:24.818Z,6.62
2019-05-02T03:46:54.246Z,6.65
2019-05-02T03:49:21.389Z,6.62
2019-05-02T03:51:55.909Z,6.72
2019-05-02T03:54:24.717Z,6.73
2019-05-02T03:56:55.430Z,6.74
2019-05-02T03:59:37.389Z,6.76
2019-05-02T04:01:59.524Z,6.67
2019-05-02T04:04:31.231Z,6.77
2019-05-02T04:07:03.489Z,6.81
2019-05-02T04:09:42.584Z,6.86
2019-05-02T04:12:18.890Z,6.87
2019-05-02T04:14:42.418Z,6.95
2019-05-02T04:17:13.353Z,7.05
2019-05-02T04:19:44.278Z,7.14
2019-05-02T04:22:16.127Z,7.32
2019-05-02T04:24:54.642Z,7.38
2019-05-02T04:27:19.756Z,7.63
2019-05-02T04:29:50.708Z,7.86
2019-05-02T04:32:21.526Z,8.12
2019-05-02T04:34:55.617Z,8.38
2019-05-02T04:37:25.203Z,8.83
2019-05-02T04:39:59.082Z,9.56
2019-05-02T04:42:29.374Z,10.08
2019-05-02T04:45:20.669Z,10.61
2019-05-02T04:47:33.004Z,10.97
2019-05-02T04:50:07.659Z,11.17
2019-05-02T04:52:38.390Z,11.55
2019-05-02T04:55:20.031Z,11.82
2019-05-02T04:57:47.181Z,11.96
2019-05-02T05:00:35.599Z,12.20
2019-05-02T05:03:15.294Z,12.75
2019-05-02T05:05:40.329Z,12.94
2019-05-02T05:08:11.473Z,13.32
2019-05-02T05:10:45.059Z,13.49
2019-05-02T05:13:19.740Z,13.66
2019-05-02T05:15:51.199Z,13.58
2019-05-02T05:18:19.933Z,13.67
2019-05-02T05:20:54.083Z,13.60
2019-05-02T05:23:41.972Z,14.20
2019-05-02T05:26:12.746Z,14.19
2019-05-02T05:28:44.511Z,14.46
2019-05-02T05:31:23.410Z,14.52
2019-05-02T05:33:48.313Z,15.11
2019-05-02T05:36:20.067Z,15.44
2019-05-02T05:38:52.017Z,15.52
2019-05-02T05:41:23.331Z,15.51
2019-05-02T05:43:54.387Z,15.23
2019-05-02T05:46:25.228Z,15.36
2019-05-02T05:48:57.823Z,15.50
2019-05-02T05:51:28.558Z,15.87
2019-05-02T05:54:03.017Z,15.39
2019-05-02T05:56:32.525Z,15.81
2019-05-02T05:59:04.474Z,16.08
2019-05-02T06:01:36.427Z,16.14
2019-05-02T06:04:08.704Z,16.13
2019-05-02T06:06:39.450Z,15.70
2019-05-02T06:09:13.762Z,16.03
2019-05-02T06:11:43.477Z,16.10
2019-05-02T06:14:14.309Z,16.24
2019-05-02T06:16:46.660Z,16.26
2019-05-02T06:19:19.133Z,16.20
2019-05-02T06:21:50.093Z,16.33
2019-05-02T06:24:20.992Z,17.20
2019-05-02T06:26:51.992Z,16.92
2019-05-02T06:29:22.868Z,17.32
2019-05-02T06:31:53.797Z,16.94
2019-05-02T06:34:24.816Z,17.13
2019-05-02T06:36:55.754Z,17.07
2019-05-02T06:39:27.162Z,17.50
2019-05-02T06:41:59.195Z,17.97
2019-05-02T06:44:30.083Z,17.92
2019-05-02T06:47:04.240Z,18.77
2019-05-02T06:49:33.948Z,18.75
2019-05-02T06:52:05.047Z,19.27
2019-05-02T06:54:35.789Z,19.24
2019-05-02T06:57:06.715Z,18.66
2019-05-02T06:59:37.582Z,18.79
2019-05-02T07:02:08.747Z,18.75
2019-05-02T07:04:39.533Z,19.19
2019-05-02T07:07:13.185Z,19.69
2019-05-02T07:09:44.413Z,19.14
2019-05-02T07:12:18.538Z,19.92
2019-05-02T07:14:56.156Z,19.78
2019-05-02T07:17:42.194Z,20.56
2019-05-02T07:20:14.158Z,20.14
2019-05-02T07:22:45.674Z,20.12
2019-05-02T07:25:19.190Z,19.72
2019-05-02T07:27:51.631Z,20.04
2019-05-02T07:30:23.371Z,20.60
2019-05-02T07:32:56.403Z,20.11
2019-05-02T07:35:28.038Z,21.01
2019-05-02T07:38:05.217Z,21.77
2019-05-02T07:40:41.648Z,22.25
2019-05-02T07:43:13.476Z,22.30
2019-05-02T07:45:46.383Z,21.99
2019-05-02T07:48:18.963Z,21.29
2019-05-02T07:50:50.074Z,21.16
2019-05-02T07:53:21.026Z,22.26
2019-05-02T07:55:52.033Z,22.69
2019-05-02T07:58:23.088Z,22.32
2019-05-02T08:00:53.967Z,22.92
2019-05-02T08:03:29.477Z,22.73
2019-05-02T08:05:58.623Z,22.70
2019-05-02T08:08:31.482Z,23.06
2019-05-02T08:11:03.286Z,23.42
2019-05-02T08:13:34.288Z,22.93
2019-05-02T08:16:05.162Z,22.63
2019-05-02T08:18:36.223Z,22.21
2019-05-02T08:21:10.661Z,22.03
2019-05-02T08:23:42.998Z,23.32
2019-05-02T08:26:16.387Z,23.18
2019-05-02T08:28:58.396Z,23.11
2019-05-02T08:31:30.341Z,24.07
2019-05-02T08:34:05.237Z,25.82
2019-05-02T08:36:35.299Z,24.76
2019-05-02T08:39:07.998Z,24.50
2019-05-02T08:41:38.857Z,24.42
2019-05-02T08:44:09.592Z,24.21
2019-05-02T08:46:40.359Z,24.48
2019-05-02T08:49:18.716Z,23.42
2019-05-02T08:51:46.943Z,22.70
2019-05-02T08:54:17.728Z,22.90
2019-05-02T08:56:53.221Z,24.26
2019-05-02T08:59:24.458Z,24.22
2019-05-02T09:01:56.190Z,24.97
2019-05-02T09:04:29.036Z,25.70
2019-05-02T09:07:01.579Z,25.50
2019-05-02T09:09:32.569Z,24.78
2019-05-02T09:12:12.191Z,24.36
2019-05-02T09:14:36.404Z,24.22
2019-05-02T09:17:13.513Z,25.18
2019-05-02T09:19:40.155Z,25.63
2019-05-02T09:22:13.309Z,24.19
2019-05-02T09:24:44.970Z,23.47
2019-05-02T09:27:17.140Z,25.25
2019-05-02T09:29:48.337Z,23.90
2019-05-02T09:32:24.874Z,23.57
2019-05-02T09:34:56.657Z,23.41
2019-05-02T09:37:25.402Z,23.24
2019-05-02T09:39:56.513Z,22.98
2019-05-02T09:42:27.606Z,23.51
2019-05-02T09:44:59.014Z,23.01
2019-05-02T09:47:33.217Z,22.38
2019-05-02T09:50:10.121Z,22.21
2019-05-02T09:52:44.162Z,22.10
2019-05-02T09:55:15.786Z,23.33
2019-05-02T09:57:46.622Z,23.35
2019-05-02T10:00:36.143Z,22.46
2019-05-02T10:03:07.098Z,22.63
2019-05-02T10:05:37.926Z,23.52
2019-05-02T10:08:13.062Z,23.45
2019-05-02T10:10:45.876Z,21.96
2019-05-02T10:13:14.847Z,22.38
2019-05-02T10:15:46.477Z,22.92
2019-05-02T10:18:24.080Z,23.34
2019-05-02T10:20:52.267Z,22.95
2019-05-02T10:23:23.609Z,23.51
2019-05-02T10:25:55.183Z,23.68
2019-05-02T10:28:26.949Z,22.19
2019-05-02T10:31:02.099Z,21.34
2019-05-02T10:33:37.443Z,20.66
2019-05-02T10:36:05.963Z,20.70
2019-05-02T10:38:37.110Z,20.47
2019-05-02T10:41:08.488Z,20.18
2019-05-02T10:43:39.892Z,20.15
2019-05-02T10:46:23.055Z,20.30
2019-05-02T10:49:01.940Z,20.02
2019-05-02T10:51:36.461Z,20.08
2019-05-02T10:54:09.118Z,19.85
2019-05-02T10:56:39.996Z,19.95
2019-05-02T10:59:11.786Z,19.80
2019-05-02T11:02:02.538Z,19.72
2019-05-02T11:04:36.489Z,19.45
2019-05-02T11:07:07.464Z,19.24
2019-05-02T11:09:38.323Z,19.04
2019-05-02T11:12:11.868Z,19.01
2019-05-02T11:14:55.573Z,18.99
2019-05-02T11:17:32.358Z,19.20
2019-05-02T11:20:05.674Z,19.24
2019-05-02T11:22:36.595Z,19.13
2019-05-02T11:25:08.117Z,19.63
2019-05-02T11:27:39.585Z,19.22
2019-05-02T11:30:16.884Z,18.75
2019-05-02T11:32:46.027Z,18.70
2019-05-02T11:35:16.975Z,18.80
2019-05-02T11:37:47.977Z,18.72
2019-05-02T11:40:19.233Z,18.61
2019-05-02T11:42:52.062Z,18.58
2019-05-02T11:45:22.742Z,18.89
2019-05-02T11:47:56.012Z,18.67
2019-05-02T11:50:26.621Z,18.77
2019-05-02T11:52:58.789Z,18.72
2019-05-02T11:55:31.813Z,18.81
2019-05-02T11:58:07.819Z,18.74
2019-05-02T12:00:35.044Z,18.56
2019-05-02T12:03:22.767Z,18.46
2019-05-02T12:05:53.643Z,18.57
2019-05-02T12:08:24.598Z,18.63
2019-05-02T12:10:55.539Z,18.75
2019-05-02T12:13:26.343Z,19.06
2019-05-02T12:15:57.242Z,18.92
2019-05-02T12:18:28.127Z,18.66
2019-05-02T12:20:59.368Z,18.56
2019-05-02T12:23:32.056Z,18.45
2019-05-02T12:26:03.634Z,18.47
2019-05-02T12:28:34.599Z,18.52
2019-05-02T12:31:08.077Z,18.44
2019-05-02T12:33:42.645Z,18.38
2019-05-02T12:36:14.383Z,18.55
2019-05-02T12:38:45.203Z,18.65
2019-05-02T12:41:21.994Z,18.36
2019-05-02T12:43:53.961Z,18.43
2019-05-02T12:46:28.528Z,18.37
2019-05-02T12:49:00.082Z,18.23
2019-05-02T12:51:32.588Z,18.19
2019-05-02T12:54:03.254Z,18.26
2019-05-02T12:56:35.093Z,18.30
2019-05-02T12:59:07.169Z,18.40
2019-05-02T13:01:37.981Z,18.58
2019-05-02T13:04:12.433Z,18.53
2019-05-02T13:06:45.413Z,18.65
2019-05-02T13:09:16.818Z,18.55
2019-05-02T13:11:53.263Z,18.39
2019-05-02T13:14:27.274Z,18.27
2019-05-02T13:17:03.857Z,18.19
2019-05-02T13:19:40.181Z,18.19
2019-05-02T13:22:24.520Z,18.44
2019-05-02T13:25:02.306Z,18.55
2019-05-02T13:27:43.379Z,18.28
2019-05-02T13:30:09.169Z,18.21
2019-05-02T13:32:42.742Z,17.99
2019-05-02T13:35:34.420Z,18.12
2019-05-02T13:38:09.149Z,18.36
2019-05-02T13:40:44.416Z,18.38
2019-05-02T13:43:16.100Z,18.38
2019-05-02T13:46:02.229Z,18.36
2019-05-02T13:48:34.147Z,18.32
2019-05-02T13:51:05.366Z,18.21
2019-05-02T13:53:40.082Z,18.34
2019-05-02T13:56:29.733Z,18.60
2019-05-02T13:59:02.603Z,18.57
2019-05-02T14:01:34.013Z,18.81
2019-05-02T14:04:10.152Z,18.74
2019-05-02T14:06:38.110Z,18.39
2019-05-02T14:09:32.361Z,18.45
2019-05-02T14:12:08.734Z,18.51
2019-05-02T14:14:39.297Z,18.64
2019-05-02T14:17:11.715Z,18.48
2019-05-02T14:19:43.859Z,18.43
2019-05-02T14:22:15.607Z,18.29
2019-05-02T14:24:46.957Z,18.22
2019-05-02T14:27:22.216Z,18.25
2019-05-02T14:29:56.449Z,18.24
2019-05-02T14:32:27.908Z,18.11
2019-05-02T14:35:18.719Z,18.09
2019-05-02T14:38:09.528Z,17.90
2019-05-02T14:41:03.023Z,17.80
2019-05-02T14:43:54.025Z,17.81
2019-05-02T14:46:34.220Z,17.97
2019-05-02T14:49:02.730Z,18.05
2019-05-02T14:51:36.603Z,17.93
2019-05-02T14:54:08.613Z,17.92
2019-05-02T14:56:47.781Z,17.77
2019-05-02T14:59:20.006Z,17.91
2019-05-02T15:01:58.017Z,17.98
2019-05-02T15:04:27.382Z,17.89
2019-05-02T15:06:58.121Z,17.90
2019-05-02T15:09:29.013Z,17.82
2019-05-02T15:12:02.412Z,17.75
2019-05-02T15:14:35.503Z,17.80
2019-05-02T15:17:07.813Z,17.76
2019-05-02T15:19:38.664Z,17.73
2019-05-02T15:22:09.418Z,17.84
2019-05-02T15:24:42.246Z,17.84
2019-05-02T15:27:17.502Z,17.71
2019-05-02T15:29:45.695Z,17.55
2019-05-02T15:32:25.557Z,17.60
2019-05-02T15:35:10.338Z,17.51
2019-05-02T15:37:41.980Z,17.46
2019-05-02T15:42:56.718Z,17.44
2019-05-02T15:45:25.498Z,17.51
2019-05-02T15:47:56.423Z,17.42
2019-05-02T15:50:27.551Z,17.37
2019-05-02T15:53:09.741Z,17.36
2019-05-02T15:55:39.360Z,17.30
2019-05-02T15:58:25.934Z,17.16
2019-05-02T16:01:04.952Z,17.12
2019-05-02T16:03:54.688Z,17.13
2019-05-02T16:06:30.808Z,17.06
2019-05-02T16:08:58.133Z,16.99
2019-05-02T16:11:28.979Z,16.91
2019-05-02T16:13:59.818Z,16.87
2019-05-02T16:16:32.052Z,16.88
2019-05-02T16:19:03.203Z,16.80
2019-05-02T16:21:43.245Z,16.76
2019-05-02T16:24:33.019Z,16.75
2019-05-02T16:27:03.893Z,16.73
2019-05-02T16:29:34.694Z,16.71
2019-05-02T16:32:24.673Z,16.64
2019-05-02T16:34:58.113Z,16.65
2019-05-02T16:37:28.933Z,16.56
2019-05-02T16:39:59.898Z,16.57
2019-05-02T16:42:32.698Z,16.53
2019-05-02T16:45:03.323Z,16.47
2019-05-02T16:47:34.254Z,16.39
2019-05-02T16:50:08.973Z,16.31
2019-05-02T16:52:43.804Z,16.17
2019-05-02T16:55:21.067Z,16.01
2019-05-02T16:57:47.258Z,15.96
2019-05-02T17:00:22.774Z,15.92
2019-05-02T17:02:54.005Z,15.84
2019-05-02T17:05:24.792Z,15.69
2019-05-02T17:08:18.928Z,15.57
2019-05-02T17:10:53.746Z,15.49
2019-05-02T17:13:27.584Z,15.34
2019-05-02T17:15:56.348Z,15.27
2019-05-02T17:18:27.268Z,15.29
2019-05-02T17:20:58.218Z,15.17
2019-05-02T17:23:29.233Z,15.06
2019-05-02T17:26:01.582Z,15.02
2019-05-02T17:28:32.564Z,14.90
2019-05-02T17:31:03.465Z,14.82
2019-05-02T17:33:34.662Z,14.74
2019-05-02T17:36:05.903Z,14.68
2019-05-02T17:38:36.553Z,14.65
2019-05-02T17:41:07.987Z,14.60
2019-05-02T17:43:42.233Z,14.46
2019-05-02T17:46:18.354Z,14.34
2019-05-02T17:48:47.640Z,14.21
2019-05-02T17:51:37.886Z,14.11
2019-05-02T17:54:12.000Z,14.01
2019-05-02T17:56:44.103Z,13.93
2019-05-02T17:59:16.972Z,13.82
2019-05-02T18:01:50.238Z,13.73
2019-05-02T18:04:22.603Z,13.64
2019-05-02T18:06:55.226Z,13.57
2019-05-02T18:09:31.616Z,13.39
2019-05-02T18:12:01.574Z,13.35
2019-05-02T18:14:33.404Z,13.30
2019-05-02T18:17:04.672Z,13.21
2019-05-02T18:19:36.195Z,13.10
2019-05-02T18:22:21.084Z,13.22
2019-05-02T18:24:46.401Z,13.24
2019-05-02T18:27:22.214Z,13.33
2019-05-02T18:29:53.245Z,13.29
2019-05-02T18:32:26.086Z,13.27
2019-05-02T18:35:01.285Z,13.28
2019-05-02T18:37:29.238Z,13.43
2019-05-02T18:40:00.053Z,13.40
2019-05-02T18:42:31.799Z,13.36
2019-05-02T18:45:02.760Z,13.39
2019-05-02T18:47:34.288Z,13.31
2019-05-02T18:50:06.205Z,13.21
2019-05-02T18:52:43.205Z,13.09
2019-05-02T18:55:17.143Z,13.01
2019-05-02T18:57:47.968Z,12.87
2019-05-02T19:00:19.778Z,12.70
2019-05-02T19:02:54.628Z,12.55
2019-05-02T19:05:26.704Z,12.43
2019-05-02T19:07:58.578Z,12.38
2019-05-02T19:10:32.206Z,12.33
2019-05-02T19:13:06.069Z,12.29
2019-05-02T19:15:39.709Z,12.20
2019-05-02T19:18:17.727Z,12.19
2019-05-02T19:21:04.560Z,12.16
2019-05-02T19:23:42.317Z,12.16
2019-05-02T19:26:15.420Z,12.09
2019-05-02T19:29:08.619Z,12.05
2019-05-02T19:31:47.257Z,11.93
2019-05-02T19:34:22.872Z,11.71
2019-05-02T19:36:57.812Z,11.59
2019-05-02T19:39:33.676Z,11.53
2019-05-02T19:42:06.642Z,11.43
2019-05-02T19:44:42.229Z,11.44
2019-05-02T19:47:22.959Z,11.22
2019-05-02T19:49:54.984Z,11.21
2019-05-02T19:52:40.506Z,11.20
2019-05-02T19:55:19.424Z,11.16
2019-05-02T19:57:44.613Z,11.11
2019-05-02T20:00:22.636Z,11.20
2019-05-02T20:02:53.778Z,11.16
2019-05-02T20:05:26.373Z,11.08
2019-05-02T20:07:58.965Z,11.11
2019-05-02T20:10:31.917Z,11.11
2019-05-02T20:13:12.786Z,11.01
2019-05-02T20:15:49.720Z,10.95
2019-05-02T20:18:22.667Z,10.75
2019-05-02T20:21:23.407Z,10.59
2019-05-02T20:23:47.016Z,10.51
2019-05-02T20:26:21.981Z,10.42
2019-05-02T20:28:56.987Z,10.33
2019-05-02T20:31:28.851Z,10.26
2019-05-02T20:34:03.297Z,10.21
2019-05-02T20:36:34.343Z,10.09
2019-05-02T20:39:07.708Z,9.93
2019-05-02T20:41:42.100Z,9.81
2019-05-02T20:44:13.083Z,9.67
2019-05-02T20:46:46.155Z,9.57
2019-05-02T20:49:20.411Z,9.36
2019-05-02T20:51:51.930Z,9.05
2019-05-02T20:54:24.425Z,8.76
2019-05-02T20:56:55.653Z,8.63
2019-05-02T20:59:26.677Z,8.41
2019-05-02T21:02:08.341Z,8.16
2019-05-02T21:04:39.288Z,7.97
2019-05-02T21:07:17.564Z,7.74
2019-05-02T21:10:07.149Z,7.66
2019-05-02T21:12:37.880Z,7.49
2019-05-02T21:15:09.562Z,7.42
2019-05-02T21:17:42.194Z,7.37
2019-05-02T21:20:15.589Z,7.17
2019-05-02T21:22:46.972Z,7.10
2019-05-02T21:25:17.611Z,7.04
2019-05-02T21:27:49.065Z,7.01
2019-05-02T21:30:27.258Z,7.01
2019-05-02T21:32:58.931Z,7.10
2019-05-02T21:35:31.925Z,7.12
2019-05-02T21:38:02.713Z,7.08
2019-05-02T21:40:33.632Z,7.03
2019-05-02T21:43:04.388Z,6.98
2019-05-02T21:45:35.128Z,6.96
2019-05-02T21:48:06.113Z,6.98
2019-05-02T21:50:43.553Z,7.00
2019-05-02T21:53:22.240Z,7.01
2019-05-02T21:56:09.688Z,7.02
2019-05-02T21:58:42.761Z,6.89
2019-05-02T22:01:15.048Z,6.89
2019-05-02T22:03:46.352Z,6.83
2019-05-02T22:06:17.902Z,6.87
2019-05-02T22:08:48.646Z,6.99
2019-05-02T22:11:20.094Z,7.14
2019-05-02T22:13:51.664Z,7.08
2019-05-02T22:16:23.202Z,7.00
2019-05-02T22:18:54.219Z,7.07
2019-05-02T22:21:26.237Z,7.10
2019-05-02T22:24:08.986Z,7.18
2019-05-02T22:26:32.904Z,7.15
2019-05-02T22:29:04.087Z,7.18
2019-05-02T22:31:37.628Z,7.23
2019-05-02T22:34:08.799Z,7.23
2019-05-02T22:36:42.904Z,7.25
2019-05-02T22:39:35.275Z,7.27
2019-05-02T22:42:06.548Z,7.32
2019-05-02T22:44:37.543Z,7.28
2019-05-02T22:47:08.486Z,7.24
2019-05-02T22:49:39.638Z,7.06
2019-05-02T22:52:12.463Z,7.04
2019-05-02T22:54:43.296Z,7.09
2019-05-02T22:57:14.450Z,7.14
2019-05-02T22:59:45.247Z,6.88
2019-05-02T23:02:17.239Z,6.85
2019-05-02T23:04:49.876Z,6.81
2019-05-02T23:07:22.172Z,6.86
2019-05-02T23:09:54.566Z,6.85
2019-05-02T23:12:25.908Z,6.86
2019-05-02T23:14:56.898Z,6.89
2019-05-02T23:17:27.843Z,6.80
2019-05-02T23:19:58.639Z,6.77
2019-05-02T23:22:29.818Z,6.72
2019-05-02T23:25:19.558Z,6.74
2019-05-02T23:27:53.854Z,6.70
2019-05-02T23:30:25.410Z,6.83
2019-05-02T23:32:56.274Z,6.92
2019-05-02T23:35:27.589Z,6.84
2019-05-02T23:37:58.597Z,6.97
2019-05-02T23:40:29.963Z,6.83
2019-05-02T23:43:01.963Z,6.84
2019-05-02T23:45:33.967Z,6.84
2019-05-02T23:48:05.263Z,6.91
2019-05-02T23:50:36.220Z,6.88
2019-05-02T23:53:10.088Z,6.85
2019-05-02T23:55:42.589Z,6.84
2019-05-02T23:58:13.495Z,6.93
